createdAt,value
2022-11-12T00:00:06.766Z,101871.16
2022-11-12T00:03:27.660Z,101878.66
2022-11-12T00:06:48.216Z,101878.41
2022-11-12T00:10:09.734Z,101871.88
2022-11-12T00:13:31.038Z,101862.31
2022-11-12T00:16:51.854Z,101864.66
2022-11-12T00:20:13.087Z,101863.75
2022-11-12T00:23:33.578Z,101848.25
2022-11-12T00:26:54.186Z,101848.19
2022-11-12T00:30:14.909Z,101853.78
2022-11-12T00:33:42.643Z,101850.97
2022-11-12T00:37:03.916Z,101849.81
2022-11-12T00:40:25.403Z,101848.25
2022-11-12T00:43:46.070Z,101847.47
2022-11-12T00:47:06.839Z,101838.16
2022-11-12T00:50:27.664Z,101824.34
2022-11-12T00:53:49.576Z,101822.84
2022-11-12T00:57:10.132Z,101825.12
2022-11-12T01:00:30.944Z,101825.12
2022-11-12T01:03:51.375Z,101833.69
2022-11-12T01:07:12.081Z,101826.34
2022-11-12T01:10:35.705Z,101827.16
2022-11-12T01:14:03.032Z,101825.31
2022-11-12T01:17:23.637Z,101817.84
2022-11-12T01:20:44.300Z,101805.09
2022-11-12T01:24:05.558Z,101813.37
2022-11-12T01:27:26.281Z,101805.88
2022-11-12T01:30:47.104Z,101806.91
2022-11-12T01:34:09.321Z,101808.38
2022-11-12T01:37:29.768Z,101803.19
2022-11-12T01:40:50.511Z,101798.72
2022-11-12T01:44:16.068Z,101802.91
2022-11-12T01:47:36.937Z,101800.03
2022-11-12T01:50:57.930Z,101797.53
2022-11-12T01:54:21.230Z,101795.59
2022-11-12T01:57:48.023Z,101797.56
2022-11-12T02:01:08.604Z,101798.56
2022-11-12T02:04:30.006Z,101798.22
2022-11-12T02:07:52.452Z,101803.37
2022-11-12T02:11:15.394Z,101794.72
2022-11-12T02:14:36.123Z,101794.78
2022-11-12T02:17:57.298Z,101788.16
2022-11-12T02:21:23.013Z,101780.16
2022-11-12T02:24:43.881Z,101779.56
2022-11-12T02:28:07.943Z,101781.25
2022-11-12T02:31:28.852Z,101777.81
2022-11-12T02:34:49.787Z,101780.22
2022-11-12T02:38:11.215Z,101787.38
2022-11-12T02:41:32.297Z,101779.53
2022-11-12T02:44:53.106Z,101785.41
2022-11-12T02:48:18.905Z,101784.66
2022-11-12T02:51:39.556Z,101787.22
2022-11-12T02:55:00.133Z,101792.66
2022-11-12T02:58:22.616Z,101794.00
2022-11-12T03:01:43.065Z,101787.78
2022-11-12T03:05:04.105Z,101785.25
2022-11-12T03:08:25.927Z,101787.22
2022-11-12T03:11:46.984Z,101790.66
2022-11-12T03:15:08.252Z,101788.97
2022-11-12T03:18:29.335Z,101790.47
2022-11-12T03:21:50.166Z,101794.22
2022-11-12T03:25:10.467Z,101788.72
2022-11-12T03:28:31.593Z,101791.06
2022-11-12T03:31:52.565Z,101802.06
2022-11-12T03:35:13.536Z,101800.84
2022-11-12T03:38:34.429Z,101807.00
2022-11-12T03:41:55.092Z,101808.78
2022-11-12T03:45:17.430Z,101818.31
2022-11-12T03:48:38.182Z,101806.06
2022-11-12T03:51:58.856Z,101813.37
2022-11-12T03:55:21.347Z,101798.59
2022-11-12T03:58:42.264Z,101811.09
2022-11-12T04:02:03.100Z,101804.38
2022-11-12T04:05:42.996Z,101802.06
2022-11-12T04:09:03.917Z,101804.47
2022-11-12T04:12:43.341Z,101796.84
2022-11-12T04:16:42.795Z,101799.00
2022-11-12T04:20:22.128Z,101793.63
2022-11-12T04:23:42.959Z,101790.34
2022-11-12T04:27:03.957Z,101787.16
2022-11-12T04:30:24.783Z,101788.16
2022-11-12T04:33:45.404Z,101792.84
2022-11-12T04:37:06.442Z,101794.75
2022-11-12T04:40:45.879Z,101795.44
2022-11-12T04:44:25.538Z,101791.97
2022-11-12T04:47:46.517Z,101786.59
2022-11-12T04:51:27.035Z,101790.31
2022-11-12T04:54:47.525Z,101782.94
2022-11-12T04:58:08.235Z,101782.19
2022-11-12T05:01:29.234Z,101789.09
2022-11-12T05:04:49.728Z,101800.28
2022-11-12T05:08:10.601Z,101807.34
2022-11-12T05:11:31.729Z,101802.87
2022-11-12T05:14:52.598Z,101810.78
2022-11-12T05:18:13.550Z,101810.31
2022-11-12T05:21:53.088Z,101804.16
2022-11-12T05:25:14.318Z,101813.16
2022-11-12T05:28:34.655Z,101806.16
2022-11-12T05:31:55.931Z,101818.41
2022-11-12T05:35:16.843Z,101819.13
2022-11-12T05:38:39.096Z,101808.47
2022-11-12T05:42:12.996Z,101809.97
2022-11-12T05:45:34.360Z,101810.19
2022-11-12T05:48:55.082Z,101800.28
2022-11-12T05:52:15.772Z,101812.25
2022-11-12T05:55:37.261Z,101808.31
2022-11-12T05:58:57.946Z,101818.44
2022-11-12T06:02:18.646Z,101818.12
2022-11-12T06:05:39.339Z,101831.34
2022-11-12T06:08:59.940Z,101831.94
2022-11-12T06:12:20.503Z,101828.91
2022-11-12T06:15:41.379Z,101836.25
2022-11-12T06:19:02.375Z,101853.06
2022-11-12T06:22:27.380Z,101856.50
2022-11-12T06:25:48.508Z,101861.22
2022-11-12T06:29:09.083Z,101861.34
2022-11-12T06:32:29.878Z,101861.09
2022-11-12T06:35:57.421Z,101865.41
2022-11-12T06:39:18.102Z,101865.81
2022-11-12T06:42:39.352Z,101878.31
2022-11-12T06:46:09.259Z,101884.13
2022-11-12T06:49:30.131Z,101886.59
2022-11-12T06:52:51.176Z,101875.84
2022-11-12T06:56:13.074Z,101880.03
2022-11-12T06:59:33.975Z,101884.09
2022-11-12T07:02:54.647Z,101877.81
2022-11-12T07:06:19.105Z,101883.06
2022-11-12T07:09:39.704Z,101885.47
2022-11-12T07:13:00.481Z,101899.84
2022-11-12T07:16:22.463Z,101911.72
2022-11-12T07:19:43.498Z,101911.37
2022-11-12T07:23:04.385Z,101898.78
2022-11-12T07:26:27.622Z,101900.22
2022-11-12T07:29:48.913Z,101898.59
2022-11-12T07:33:09.762Z,101897.50
2022-11-12T07:36:30.445Z,101895.06
2022-11-12T07:39:51.217Z,101891.28
2022-11-12T07:43:12.001Z,101888.41
2022-11-12T07:46:32.906Z,101884.50
2022-11-12T07:49:53.956Z,101884.63
2022-11-12T07:53:14.907Z,101892.62
2022-11-12T07:56:35.625Z,101886.94
2022-11-12T07:59:56.284Z,101886.81
2022-11-12T08:03:17.098Z,101904.53
2022-11-12T08:06:38.217Z,101910.56
2022-11-12T08:09:59.748Z,101912.91
2022-11-12T08:13:20.294Z,101918.69
2022-11-12T08:16:41.181Z,101930.59
2022-11-12T08:20:01.916Z,101927.81
2022-11-12T08:23:22.545Z,101926.25
2022-11-12T08:26:43.053Z,101923.66
2022-11-12T08:30:05.350Z,101925.41
2022-11-12T08:33:26.043Z,101930.19
2022-11-12T08:36:46.919Z,101920.91
2022-11-12T08:40:10.678Z,101930.19
2022-11-12T08:43:31.354Z,101930.00
2022-11-12T08:46:52.176Z,101935.13
2022-11-12T08:50:12.824Z,101937.94
2022-11-12T08:53:33.580Z,101932.84
2022-11-12T08:56:54.382Z,101940.16
2022-11-12T09:00:15.649Z,101939.91
2022-11-12T09:03:36.679Z,101953.94
2022-11-12T09:06:57.326Z,101947.44
2022-11-12T09:10:18.006Z,101956.97
2022-11-12T09:13:39.004Z,101961.03
2022-11-12T09:16:59.584Z,101958.56
2022-11-12T09:20:20.231Z,101965.37
2022-11-12T09:23:41.751Z,101977.41
2022-11-12T09:27:02.308Z,101972.87
2022-11-12T09:30:23.356Z,101973.56
2022-11-12T09:33:44.264Z,101983.03
2022-11-12T09:37:04.695Z,101993.22
2022-11-12T09:40:37.487Z,101998.69
2022-11-12T09:44:02.970Z,101989.69
2022-11-12T09:47:29.739Z,101983.53
2022-11-12T09:50:59.322Z,101984.75
2022-11-12T09:54:20.195Z,101985.94
2022-11-12T09:57:40.904Z,101985.59
2022-11-12T10:01:15.782Z,101988.09
2022-11-12T10:04:51.749Z,101992.09
2022-11-12T10:08:28.771Z,102003.28
2022-11-12T10:12:33.585Z,102003.66
2022-11-12T10:16:18.765Z,102001.69
2022-11-12T10:19:48.947Z,101999.44
2022-11-12T10:23:20.930Z,102007.97
2022-11-12T10:26:41.806Z,101991.66
2022-11-12T10:30:06.065Z,101981.34
2022-11-12T10:33:31.013Z,101979.53
2022-11-12T10:36:57.439Z,101982.87
2022-11-12T10:40:20.895Z,101975.13
2022-11-12T10:43:54.015Z,101978.59
2022-11-12T10:47:33.365Z,101971.97
2022-11-12T10:50:55.052Z,101969.41
2022-11-12T10:54:28.920Z,101973.47
2022-11-12T10:58:22.110Z,101979.44
2022-11-12T11:01:46.113Z,101966.75
2022-11-12T11:05:30.878Z,101965.09
2022-11-12T11:09:15.322Z,101968.69
2022-11-12T11:12:35.839Z,101962.25
2022-11-12T11:16:06.065Z,101957.22
2022-11-12T11:19:34.989Z,101948.00
2022-11-12T11:22:59.241Z,101945.59
2022-11-12T11:26:36.492Z,101942.16
2022-11-12T11:30:11.033Z,101937.78
2022-11-12T11:33:54.474Z,101939.63
2022-11-12T11:37:21.492Z,101942.75
2022-11-12T11:41:06.145Z,101944.63
2022-11-12T11:44:41.028Z,101953.59
2022-11-12T11:48:23.020Z,101941.09
2022-11-12T11:52:05.138Z,101940.97
2022-11-12T11:55:43.213Z,101930.22
2022-11-12T11:59:28.677Z,101933.97
2022-11-12T12:03:23.828Z,101926.94
2022-11-12T12:07:16.666Z,101926.31
2022-11-12T12:11:09.308Z,101924.47
2022-11-12T12:14:45.646Z,101916.03
2022-11-12T12:18:09.005Z,101915.09
2022-11-12T12:21:32.452Z,101903.91
2022-11-12T12:24:59.051Z,101904.69
2022-11-12T12:28:34.270Z,101910.66
2022-11-12T12:32:03.084Z,101890.94
2022-11-12T12:35:51.725Z,101902.03
2022-11-12T12:39:19.607Z,101895.38
2022-11-12T12:42:46.785Z,101891.56
2022-11-12T12:46:12.817Z,101895.63
2022-11-12T12:49:37.824Z,101894.44
2022-11-12T12:53:04.050Z,101891.88
2022-11-12T12:56:31.216Z,101888.50
2022-11-12T13:00:15.510Z,101893.00
2022-11-12T13:04:05.080Z,101893.78
2022-11-12T13:07:48.575Z,101888.97
2022-11-12T13:11:09.495Z,101886.41
2022-11-12T13:14:38.869Z,101887.66
2022-11-12T13:17:59.560Z,101882.53
2022-11-12T13:21:21.612Z,101886.22
2022-11-12T13:25:10.481Z,101889.03
2022-11-12T13:28:31.308Z,101890.47
2022-11-12T13:32:31.230Z,101891.19
2022-11-12T13:35:51.937Z,101884.94
2022-11-12T13:39:16.610Z,101889.62
2022-11-12T13:42:49.853Z,101901.13
2022-11-12T13:46:10.969Z,101895.00
2022-11-12T13:49:31.892Z,101894.56
2022-11-12T13:52:53.294Z,101898.22
2022-11-12T13:56:28.621Z,101902.16
2022-11-12T13:59:49.516Z,101896.03
2022-11-12T14:03:17.145Z,101887.16
2022-11-12T14:06:40.979Z,101896.28
2022-11-12T14:10:34.475Z,101899.25
2022-11-12T14:14:39.674Z,101892.44
2022-11-12T14:18:21.427Z,101888.09
2022-11-12T14:21:42.013Z,101889.19
2022-11-12T14:25:04.276Z,101892.50
2022-11-12T14:28:33.509Z,101893.59
2022-11-12T14:32:02.888Z,101890.38
2022-11-12T14:35:34.271Z,101888.22
2022-11-12T14:38:57.561Z,101888.91
2022-11-12T14:42:18.414Z,101890.16
2022-11-12T14:45:48.413Z,101889.00
2022-11-12T14:49:27.855Z,101883.97
2022-11-12T14:52:51.624Z,101886.56
2022-11-12T14:56:42.271Z,101890.72
2022-11-12T15:00:19.770Z,101894.34
2022-11-12T15:03:40.567Z,101889.62
2022-11-12T15:07:01.358Z,101894.37
2022-11-12T15:10:29.594Z,101887.53
2022-11-12T15:13:53.232Z,101896.16
2022-11-12T15:17:33.501Z,101891.06
2022-11-12T15:21:04.711Z,101902.81
2022-11-12T15:24:34.332Z,101897.69
2022-11-12T15:27:55.463Z,101899.41
2022-11-12T15:31:21.733Z,101904.81
2022-11-12T15:34:42.273Z,101904.34
2022-11-12T15:38:07.968Z,101903.84
2022-11-12T15:41:30.627Z,101904.22
2022-11-12T15:44:56.958Z,101907.38
2022-11-12T15:48:17.926Z,101904.37
2022-11-12T15:51:38.854Z,101913.62
2022-11-12T15:54:59.680Z,101913.94
2022-11-12T15:58:32.962Z,101915.72
2022-11-12T16:01:54.022Z,101929.72
2022-11-12T16:05:17.050Z,101926.25
2022-11-12T16:08:37.853Z,101922.91
2022-11-12T16:11:58.954Z,101933.34
2022-11-12T16:15:25.368Z,101928.87
2022-11-12T16:18:46.018Z,101929.88
2022-11-12T16:22:12.453Z,101931.69
2022-11-12T16:25:35.985Z,101921.19
2022-11-12T16:28:57.684Z,101925.41
2022-11-12T16:32:18.317Z,101922.06
2022-11-12T16:35:40.126Z,101923.81
2022-11-12T16:39:01.176Z,101918.81
2022-11-12T16:42:22.054Z,101921.53
2022-11-12T16:45:45.062Z,101924.22
2022-11-12T16:49:10.763Z,101922.38
2022-11-12T16:52:31.344Z,101918.25
2022-11-12T16:55:52.099Z,101920.28
2022-11-12T16:59:14.358Z,101925.81
2022-11-12T17:02:39.229Z,101916.41
2022-11-12T17:06:03.132Z,101930.53
2022-11-12T17:09:23.687Z,101926.34
2022-11-12T17:12:48.324Z,101924.81
2022-11-12T17:16:09.390Z,101921.63
2022-11-12T17:19:30.211Z,101917.59
2022-11-12T17:22:51.073Z,101921.47
2022-11-12T17:26:21.544Z,101924.41
2022-11-12T17:29:42.032Z,101920.41
2022-11-12T17:33:02.642Z,101914.56
2022-11-12T17:36:27.212Z,101919.97
2022-11-12T17:39:47.718Z,101906.56
2022-11-12T17:43:08.512Z,101901.50
2022-11-12T17:46:29.866Z,101908.88
2022-11-12T17:49:50.791Z,101905.97
2022-11-12T17:53:11.682Z,101910.38
2022-11-12T17:56:36.931Z,101905.25
2022-11-12T17:59:58.007Z,101905.28
2022-11-12T18:03:19.514Z,101911.56
2022-11-12T18:06:40.181Z,101910.84
2022-11-12T18:10:00.779Z,101917.66
2022-11-12T18:13:21.311Z,101919.44
2022-11-12T18:16:42.331Z,101909.69
2022-11-12T18:20:03.811Z,101921.03
2022-11-12T18:23:24.452Z,101921.75
2022-11-12T18:26:45.138Z,101919.09
2022-11-12T18:30:06.276Z,101916.47
2022-11-12T18:33:27.273Z,101922.69
2022-11-12T18:36:48.320Z,101933.91
2022-11-12T18:40:09.391Z,101930.56
2022-11-12T18:43:30.537Z,101923.66
2022-11-12T18:46:51.382Z,101926.34
2022-11-12T18:50:12.113Z,101928.09
2022-11-12T18:53:33.881Z,101924.44
2022-11-12T18:56:54.513Z,101936.72
2022-11-12T19:00:15.683Z,101945.47
2022-11-12T19:03:36.923Z,101944.59
2022-11-12T19:06:58.034Z,101942.19
2022-11-12T19:10:19.130Z,101942.97
2022-11-12T19:13:40.403Z,101939.63
2022-11-12T19:17:01.078Z,101942.19
2022-11-12T19:20:21.669Z,101943.81
2022-11-12T19:23:50.021Z,101948.94
2022-11-12T19:27:13.357Z,101954.97
2022-11-12T19:30:33.903Z,101952.28
2022-11-12T19:33:55.193Z,101954.72
2022-11-12T19:37:45.454Z,101958.31
2022-11-12T19:41:02.185Z,101960.09
2022-11-12T19:44:23.202Z,101965.47
2022-11-12T19:47:43.685Z,101956.78
2022-11-12T19:51:06.734Z,101964.78
2022-11-12T19:54:27.115Z,101957.97
2022-11-12T19:57:48.037Z,101964.03
2022-11-12T20:01:11.188Z,101983.84
2022-11-12T20:04:34.035Z,101985.91
2022-11-12T20:07:54.823Z,101977.50
2022-11-12T20:11:16.324Z,101981.94
2022-11-12T20:14:37.109Z,101982.78
2022-11-12T20:17:57.647Z,101987.88
2022-11-12T20:21:18.482Z,101981.34
2022-11-12T20:24:39.340Z,101984.66
2022-11-12T20:28:00.143Z,101988.31
2022-11-12T20:31:21.288Z,101983.50
2022-11-12T20:34:42.112Z,101990.72
2022-11-12T20:38:04.574Z,101983.44
2022-11-12T20:41:26.669Z,101984.28
2022-11-12T20:44:47.308Z,101982.66
2022-11-12T20:48:08.073Z,101975.50
2022-11-12T20:51:29.589Z,101976.88
2022-11-12T20:54:50.109Z,101973.25
2022-11-12T20:58:10.705Z,101976.84
2022-11-12T21:01:31.577Z,101973.50
2022-11-12T21:04:54.598Z,101981.75
2022-11-12T21:08:15.243Z,101987.44
2022-11-12T21:11:36.070Z,101982.72
2022-11-12T21:14:56.894Z,101989.03
2022-11-12T21:18:18.171Z,101985.13
2022-11-12T21:21:39.048Z,101983.31
2022-11-12T21:24:59.789Z,101977.88
2022-11-12T21:28:20.359Z,101980.41
2022-11-12T21:31:41.008Z,101983.13
2022-11-12T21:35:01.634Z,101983.22
2022-11-12T21:38:23.083Z,101981.97
2022-11-12T21:41:43.502Z,101985.63
2022-11-12T21:45:04.480Z,101988.41
2022-11-12T21:48:25.327Z,101982.50
2022-11-12T21:51:46.507Z,101980.03
2022-11-12T21:55:07.933Z,101977.81
2022-11-12T21:58:29.886Z,101973.31
2022-11-12T22:01:50.561Z,101973.31
2022-11-12T22:05:11.396Z,101979.16
2022-11-12T22:08:32.656Z,101963.47
2022-11-12T22:11:53.249Z,101968.75
2022-11-12T22:15:14.018Z,101968.84
2022-11-12T22:18:35.391Z,101961.41
2022-11-12T22:21:55.947Z,101967.31
2022-11-12T22:25:16.622Z,101972.28
2022-11-12T22:28:37.645Z,101967.50
2022-11-12T22:31:58.020Z,101975.34
2022-11-12T22:35:18.524Z,101969.84
2022-11-12T22:38:41.174Z,101973.22
2022-11-12T22:42:02.186Z,101974.72
2022-11-12T22:45:23.042Z,101975.78
2022-11-12T22:48:44.712Z,101966.06
2022-11-12T22:52:05.046Z,101966.22
2022-11-12T22:55:25.772Z,101968.69
2022-11-12T22:58:46.918Z,101967.81
2022-11-12T23:02:07.918Z,101970.19
2022-11-12T23:05:28.488Z,101970.47
2022-11-12T23:08:49.619Z,101966.22
2022-11-12T23:12:10.002Z,101977.81
2022-11-12T23:15:31.078Z,101974.62
2022-11-12T23:18:53.257Z,101977.84
2022-11-12T23:22:13.924Z,101968.25
2022-11-12T23:25:34.579Z,101970.66
2022-11-12T23:28:55.446Z,101975.03
2022-11-12T23:32:16.266Z,101977.00
2022-11-12T23:35:36.976Z,101971.81
2022-11-12T23:38:58.970Z,101977.69
2022-11-12T23:42:19.402Z,101964.31
2022-11-12T23:45:40.156Z,101975.41
2022-11-12T23:49:00.978Z,101977.25
2022-11-12T23:52:21.533Z,101974.53
2022-11-12T23:55:42.960Z,101980.62
2022-11-12T23:59:03.596Z,101981.47
